Time;durP1;ratioP1;P1;durP2;ratioP2;P2;SDS_P1;SDS_P2;PMS_P1;PMS_P2;Temp;Humidity;BMP_temperature;BMP_pressure;BME280_temperature;BME280_humidity;BME280_pressure;Samples;Min_cycle;Max_cycle;Signal;HPM_P1;HPM_P2
2023/04/20 04:02:55;;;;;;;0.50;0.10;;;7.30;99.90;;;;;;4944556;23;20484;-74
2023/04/20 04:05:24;;;;;;;0.50;0.10;;;7.30;99.90;;;;;;4936011;29;20483;-73
2023/04/20 04:07:52;;;;;;;0.60;0.10;;;7.30;99.90;;;;;;4937278;29;20452;-72
2023/04/20 04:10:20;;;;;;;0.50;0.10;;;7.30;99.90;;;;;;4937471;29;20452;-73
2023/04/20 04:12:48;;;;;;;0.50;0.10;;;7.30;99.90;;;;;;4937478;29;21020;-73
2023/04/20 04:15:18;;;;;;;0.60;0.10;;;7.30;99.90;;;;;;4960051;23;20506;-75
2023/04/20 04:17:45;;;;;;;0.50;0.17;;;7.30;99.90;;;;;;4935662;29;21000;-74
2023/04/20 04:20:15;;;;;;;0.50;0.10;;;7.30;99.90;;;;;;4941350;29;20447;-75
2023/04/20 04:22:43;;;;;;;1.17;1.07;;;7.30;99.90;;;;;;4941325;29;20989;-73
2023/04/20 04:25:11;;;;;;;0.60;0.20;;;7.30;99.90;;;;;;4940478;29;20463;-75
2023/04/20 04:27:39;;;;;;;0.50;0.17;;;7.20;99.90;;;;;;4941364;29;20456;-74
2023/04/20 04:30:09;;;;;;;0.50;0.10;;;7.20;99.90;;;;;;4940492;29;20958;-74
2023/04/20 04:32:38;;;;;;;1.47;1.10;;;7.10;99.90;;;;;;4931078;29;20547;-73
2023/04/20 04:35:06;;;;;;;0.60;0.60;;;7.10;99.90;;;;;;4936265;29;20891;-74
2023/04/20 04:37:35;;;;;;;0.60;0.10;;;7.10;99.90;;;;;;4936636;29;20454;-74
2023/04/20 04:40:06;;;;;;;0.60;0.30;;;7.10;99.90;;;;;;4936095;29;20459;-75
2023/04/20 04:42:34;;;;;;;0.50;0.10;;;7.00;99.90;;;;;;4936534;29;20451;-74
2023/04/20 04:45:03;;;;;;;0.50;0.30;;;7.10;99.90;;;;;;4936512;29;20475;-74
2023/04/20 04:47:34;;;;;;;0.63;0.30;;;7.00;99.90;;;;;;4936285;29;20494;-74
2023/04/20 04:50:04;;;;;;;1.37;1.27;;;7.00;99.90;;;;;;4935824;29;20998;-74
2023/04/20 04:52:32;;;;;;;0.70;0.67;;;7.00;99.90;;;;;;4916872;29;20451;-73
2023/04/20 04:55:02;;;;;;;0.50;0.10;;;7.00;99.90;;;;;;4917045;29;20881;-73
2023/04/20 04:57:30;;;;;;;0.60;0.30;;;6.90;99.90;;;;;;4926357;29;20823;-74
2023/04/20 04:59:58;;;;;;;0.50;0.10;;;6.90;99.90;;;;;;4935666;29;20451;-73
2023/04/20 05:02:26;;;;;;;1.10;0.63;;;6.90;99.90;;;;;;4936306;29;20642;-74
2023/04/20 05:04:55;;;;;;;0.60;0.40;;;6.90;99.90;;;;;;4935975;29;20469;-74
2023/04/20 05:07:23;;;;;;;0.50;0.10;;;6.80;99.90;;;;;;4935465;29;20534;-74
2023/04/20 05:09:51;;;;;;;0.50;0.10;;;6.70;99.90;;;;;;4917041;29;20455;-74
2023/04/20 05:12:20;;;;;;;0.60;0.30;;;6.70;99.90;;;;;;4918262;29;20460;-74
2023/04/20 05:14:48;;;;;;;0.50;0.10;;;6.80;99.90;;;;;;4935293;29;20487;-74
2023/04/20 05:17:16;;;;;;;0.57;0.27;;;6.80;99.90;;;;;;4935997;29;20471;-75
2023/04/20 05:19:43;;;;;;;0.60;0.30;;;6.80;99.90;;;;;;4937887;29;20452;-75
2023/04/20 05:22:11;;;;;;;0.50;0.10;;;6.70;99.90;;;;;;4936811;29;20863;-74
2023/04/20 05:24:39;;;;;;;0.50;0.20;;;6.80;99.90;;;;;;4935461;29;20491;-73
2023/04/20 05:27:07;;;;;;;0.60;0.30;;;6.80;99.90;;;;;;4934852;29;20494;-74
2023/04/20 05:29:36;;;;;;;2.00;0.53;;;6.80;99.90;;;;;;4935791;29;20454;-74
2023/04/20 05:32:05;;;;;;;1.00;0.47;;;6.80;99.90;;;;;;4935550;29;20830;-75
2023/04/20 05:34:33;;;;;;;0.50;0.20;;;6.80;99.90;;;;;;4924154;29;20472;-73
2023/04/20 05:37:04;;;;;;;0.70;0.70;;;6.80;99.90;;;;;;4936002;29;20444;-74
2023/04/20 05:39:32;;;;;;;0.80;0.67;;;6.80;99.90;;;;;;4941258;29;20455;-74
2023/04/20 05:42:00;;;;;;;2.20;0.83;;;6.80;99.90;;;;;;4942235;29;20459;-74
2023/04/20 05:44:28;;;;;;;0.50;0.10;;;6.90;99.90;;;;;;4942031;29;20839;-74
2023/04/20 05:46:57;;;;;;;1.13;1.03;;;6.90;99.90;;;;;;4933093;29;20481;-75
2023/04/20 05:49:25;;;;;;;0.50;0.20;;;7.00;99.90;;;;;;4918790;29;20447;-75
2023/04/20 05:51:53;;;;;;;0.67;0.67;;;7.00;99.90;;;;;;4930008;29;20951;-73
2023/04/20 05:54:21;;;;;;;0.60;0.20;;;7.00;99.90;;;;;;4936065;29;20463;-75
2023/04/20 05:56:49;;;;;;;0.60;0.30;;;7.00;99.90;;;;;;4937005;29;20451;-74
2023/04/20 05:59:17;;;;;;;0.50;0.10;;;7.00;99.90;;;;;;4936623;29;20447;-73
2023/04/20 06:01:45;;;;;;;0.50;0.10;;;7.10;99.90;;;;;;4937102;29;20539;-71
2023/04/20 06:04:14;;;;;;;0.70;0.20;;;7.50;99.90;;;;;;4935247;29;20456;-71
2023/04/20 06:06:43;;;;;;;2.10;0.73;;;7.80;99.90;;;;;;4936505;29;20490;-71
2023/04/20 06:09:11;;;;;;;0.50;0.17;;;8.10;99.90;;;;;;4937039;29;20479;-72
2023/04/20 06:11:39;;;;;;;0.50;0.10;;;8.30;99.90;;;;;;4936899;29;20455;-70
2023/04/20 06:14:06;;;;;;;0.63;0.40;;;8.60;99.90;;;;;;4929669;29;20462;-72
2023/04/20 06:16:34;;;;;;;0.60;0.30;;;8.70;99.90;;;;;;4938822;29;21071;-71
2023/04/20 06:19:03;;;;;;;0.50;0.10;;;8.70;99.90;;;;;;4939838;29;20514;-72
2023/04/20 06:21:33;;;;;;;0.50;0.10;;;8.70;99.90;;;;;;4946081;29;20447;-71
2023/04/20 06:24:01;;;;;;;0.50;0.20;;;8.70;99.90;;;;;;4944057;29;20479;-71
2023/04/20 06:26:32;;;;;;;0.60;0.30;;;8.60;99.90;;;;;;4941749;29;20451;-72
2023/04/20 06:29:00;;;;;;;0.70;0.53;;;8.60;99.90;;;;;;4940599;29;20947;-71
2023/04/20 06:31:28;;;;;;;0.53;0.10;;;8.50;99.90;;;;;;4922997;29;20529;-71
2023/04/20 06:33:58;;;;;;;0.57;0.20;;;8.50;99.90;;;;;;4931287;29;20451;-70
2023/04/20 06:36:27;;;;;;;0.50;0.10;;;;;;;;;;4940470;29;20483;-71
2023/04/20 06:38:56;;;;;;;0.50;0.20;;;8.70;99.90;;;;;;4940227;29;20860;-71
2023/04/20 06:41:24;;;;;;;0.60;0.10;;;8.80;99.90;;;;;;4940228;29;20465;-73
2023/04/20 06:43:52;;;;;;;0.60;0.30;;;8.90;99.90;;;;;;4941655;29;20469;-75
2023/04/20 06:46:20;;;;;;;0.60;0.10;;;8.90;99.90;;;;;;4931312;28;20479;-75
2023/04/20 06:48:48;;;;;;;0.80;0.50;;;9.00;99.90;;;;;;4942022;29;20498;-75
2023/04/20 06:51:16;;;;;;;0.60;0.10;;;8.90;99.90;;;;;;4924275;29;20476;-75
2023/04/20 06:53:44;;;;;;;3.13;1.90;;;8.90;99.90;;;;;;4931115;29;20511;-76
2023/04/20 06:56:13;;;;;;;0.60;0.20;;;8.90;99.90;;;;;;4932186;29;20502;-76
2023/04/20 06:58:41;;;;;;;1.13;0.20;;;9.00;99.90;;;;;;4927293;29;20210;-76
2023/04/20 07:01:09;;;;;;;0.60;0.30;;;9.10;99.90;;;;;;4943143;29;20472;-78
2023/04/20 07:03:37;;;;;;;0.50;0.10;;;9.10;99.90;;;;;;4941845;29;20448;-76
2023/04/20 07:06:06;;;;;;;0.90;0.50;;;9.00;99.90;;;;;;4942774;29;20995;-78
2023/04/20 07:08:34;;;;;;;0.50;0.10;;;9.00;99.90;;;;;;4945960;29;20487;-77
2023/04/20 07:11:02;;;;;;;0.50;0.10;;;9.00;99.90;;;;;;4951123;29;20503;-78
2023/04/20 07:13:32;;;;;;;0.60;0.10;;;9.00;99.90;;;;;;4948410;29;20470;-78
2023/04/20 07:16:01;;;;;;;0.50;0.10;;;9.00;99.90;;;;;;4943027;29;20472;-77
2023/04/20 07:18:30;;;;;;;1.03;0.40;;;9.00;99.90;;;;;;4942314;29;20504;-78
2023/04/20 07:21:00;;;;;;;0.57;0.10;;;9.10;99.90;;;;;;4954907;29;20525;-78
2023/04/20 07:23:28;;;;;;;0.60;0.10;;;9.20;99.90;;;;;;4953106;29;20464;-77
2023/04/20 07:25:56;;;;;;;0.50;0.10;;;9.30;99.90;;;;;;4951114;29;20473;-78
2023/04/20 07:28:24;;;;;;;1.40;1.30;;;9.20;99.90;;;;;;4953138;29;20840;-78
2023/04/20 07:30:54;;;;;;;0.50;0.10;;;9.20;99.90;;;;;;4953652;29;20451;-78
2023/04/20 07:33:23;;;;;;;0.60;0.10;;;9.30;99.90;;;;;;4946238;29;20452;-77
2023/04/20 07:35:51;;;;;;;3.13;0.67;;;;;;;;;;4931687;29;21016;-77
2023/04/20 07:38:20;;;;;;;0.60;0.20;;;9.40;99.90;;;;;;4924299;29;20441;-77
2023/04/20 07:40:48;;;;;;;0.50;0.10;;;9.20;99.90;;;;;;4932305;29;20448;-75
2023/04/20 07:43:16;;;;;;;0.60;0.30;;;9.10;99.90;;;;;;4939303;29;21087;-76
2023/04/20 07:45:44;;;;;;;0.60;0.30;;;8.90;99.90;;;;;;4936612;29;20536;-76
2023/04/20 07:48:13;;;;;;;2.20;1.50;;;8.80;99.90;;;;;;4937618;29;20499;-75
2023/04/20 07:50:41;;;;;;;0.60;0.30;;;8.60;99.90;;;;;;4938636;29;20533;-75
2023/04/20 07:53:09;;;;;;;1.00;0.77;;;8.40;99.90;;;;;;4939652;29;20449;-75
2023/04/20 07:55:37;;;;;;;0.53;0.20;;;8.30;99.90;;;;;;4941793;29;20482;-76
2023/04/20 07:58:07;;;;;;;0.60;0.30;;;8.40;99.90;;;;;;4939271;29;20444;-77
2023/04/20 08:00:34;;;;;;;0.50;0.10;;;8.40;99.90;;;;;;4941067;29;20451;-75
2023/04/20 08:03:02;;;;;;;2.83;2.63;;;8.20;99.90;;;;;;4941298;29;20448;-75
2023/04/20 08:05:32;;;;;;;0.60;0.10;;;8.20;99.90;;;;;;4941197;29;20464;-77
2023/04/20 08:08:00;;;;;;;0.50;0.20;;;8.20;99.90;;;;;;4943740;29;20479;-75
2023/04/20 08:10:28;;;;;;;0.50;0.10;;;8.20;99.90;;;;;;4941192;29;20452;-76
2023/04/20 08:12:56;;;;;;;0.50;0.10;;;8.40;99.90;;;;;;4939363;29;21139;-75
2023/04/20 08:15:24;;;;;;;0.60;0.30;;;8.60;99.90;;;;;;4929220;29;20486;-76
2023/04/20 08:17:53;;;;;;;0.50;0.10;;;8.60;99.90;;;;;;4937343;29;20436;-75
2023/04/20 08:20:21;;;;;;;0.50;0.20;;;8.80;99.90;;;;;;4924719;29;20453;-76
2023/04/20 08:22:52;;;;;;;0.50;0.10;;;8.90;99.90;;;;;;4943346;29;20590;-77
2023/04/20 08:25:20;;;;;;;1.80;1.30;;;9.00;99.90;;;;;;4948973;29;20463;-76
2023/04/20 08:27:48;;;;;;;0.50;0.20;;;8.90;99.90;;;;;;4960186;28;20483;-76
2023/04/20 08:30:16;;;;;;;0.50;0.10;;;8.80;99.90;;;;;;4943553;28;20459;-75
2023/04/20 08:32:44;;;;;;;1.40;1.30;;;8.80;99.90;;;;;;4937977;29;20527;-76
2023/04/20 08:35:12;;;;;;;0.50;0.10;;;8.80;99.90;;;;;;4937288;29;20987;-74
2023/04/20 08:37:40;;;;;;;1.33;1.03;;;8.90;99.90;;;;;;4937854;29;20455;-74
2023/04/20 08:40:11;;;;;;;0.60;0.20;;;8.80;99.90;;;;;;4938077;29;21041;-76
2023/04/20 08:42:39;;;;;;;0.50;0.20;;;8.90;99.90;;;;;;4938541;29;20454;-79
2023/04/20 08:45:07;;;;;;;0.60;0.30;;;9.10;99.90;;;;;;4938261;29;21012;-76
2023/04/20 08:47:36;;;;;;;0.50;0.10;;;9.30;99.90;;;;;;4937497;29;20440;-76
2023/04/20 08:50:05;;;;;;;0.83;0.67;;;9.50;99.90;;;;;;4936843;29;20456;-76
2023/04/20 08:52:34;;;;;;;0.57;0.20;;;9.50;99.90;;;;;;4936685;29;20449;-76
2023/04/20 08:55:03;;;;;;;0.60;0.40;;;9.50;99.90;;;;;;4937127;29;20474;-76
2023/04/20 08:57:32;;;;;;;0.60;0.10;;;9.40;99.90;;;;;;4937054;29;20455;-75
2023/04/20 08:59:59;;;;;;;0.50;0.20;;;9.50;99.90;;;;;;4939166;29;20816;-75
2023/04/20 09:02:27;;;;;;;0.50;0.10;;;9.50;99.90;;;;;;4932697;29;20464;-75
2023/04/20 09:05:03;;;;;;;0.60;0.30;;;9.60;99.90;;;;;;4947553;29;20483;-75
2023/04/20 09:07:32;;;;;;;0.60;0.10;;;9.60;99.90;;;;;;4937125;29;20512;-74
2023/04/20 09:10:01;;;;;;;0.60;0.10;;;9.80;99.90;;;;;;4941244;29;20477;-76
2023/04/20 09:12:29;;;;;;;0.60;0.10;;;10.00;99.90;;;;;;4929742;29;20456;-74
2023/04/20 09:14:58;;;;;;;0.60;0.20;;;10.20;99.90;;;;;;4916959;29;20472;-74
2023/04/20 09:17:33;;;;;;;2.90;0.70;;;10.20;99.90;;;;;;4929351;29;20450;-75
2023/04/20 09:20:03;;;;;;;1.73;1.03;;;10.10;99.90;;;;;;4921057;29;20440;-75
2023/04/20 09:22:32;;;;;;;0.60;0.23;;;10.10;99.90;;;;;;4927233;29;20457;-75
2023/04/20 09:25:01;;;;;;;3.43;1.20;;;10.20;99.90;;;;;;4933301;29;20563;-74
2023/04/20 09:27:30;;;;;;;0.60;0.10;;;10.30;99.90;;;;;;4932984;29;20448;-75
2023/04/20 09:30:00;;;;;;;0.70;0.40;;;10.40;99.90;;;;;;4935815;29;20504;-75
2023/04/20 09:32:29;;;;;;;3.43;0.63;;;10.60;99.90;;;;;;4933384;29;20518;-77
2023/04/20 09:34:57;;;;;;;0.80;0.63;;;10.60;99.90;;;;;;4936115;29;20464;-75
2023/04/20 09:37:25;;;;;;;1.47;1.07;;;10.70;99.90;;;;;;4933247;29;20525;-75
2023/04/20 09:39:55;;;;;;;1.30;0.40;;;10.80;99.90;;;;;;4934779;29;20465;-75
2023/04/20 09:42:27;;;;;;;0.60;0.10;;;11.00;99.90;;;;;;4934648;29;20470;-75
2023/04/20 09:44:56;;;;;;;0.87;0.40;;;11.20;99.90;;;;;;4935120;29;20483;-76
2023/04/20 09:47:28;;;;;;;0.60;0.10;;;11.30;99.90;;;;;;4937922;29;20801;-76
2023/04/20 09:49:57;;;;;;;1.27;1.17;;;11.30;99.90;;;;;;4941976;29;20484;-75
2023/04/20 09:52:37;;;;;;;0.60;0.10;;;11.30;99.90;;;;;;4940201;29;20444;-75
2023/04/20 09:55:06;;;;;;;0.60;0.10;;;11.40;99.90;;;;;;4935917;29;20504;-75
2023/04/20 09:57:35;;;;;;;1.47;0.77;;;11.50;99.90;;;;;;4936275;29;20444;-75
2023/04/20 10:00:05;;;;;;;2.50;0.53;;;11.50;99.90;;;;;;4935973;29;20445;-76
2023/04/20 10:02:35;;;;;;;0.70;0.30;;;11.40;99.90;;;;;;4936069;29;20952;-76
2023/04/20 10:05:03;;;;;;;0.60;0.10;;;11.40;99.90;;;;;;4938482;29;20495;-74
2023/04/20 10:07:33;;;;;;;1.00;0.63;;;11.50;99.90;;;;;;4940844;29;20977;-76
2023/04/20 10:10:09;;;;;;;1.37;1.20;;;11.40;99.90;;;;;;4940609;29;20484;-75
2023/04/20 10:12:50;;;;;;;2.60;0.77;;;11.50;99.90;;;;;;4931808;29;20449;-74
2023/04/20 10:15:20;;;;;;;0.80;0.50;;;11.40;99.90;;;;;;4934248;29;20565;-75
2023/04/20 10:17:50;;;;;;;0.60;0.30;;;11.40;99.90;;;;;;4940597;29;20882;-77
2023/04/20 10:20:20;;;;;;;0.60;0.20;;;11.40;99.90;;;;;;4940618;29;20469;-78
2023/04/20 10:22:48;;;;;;;0.80;0.33;;;11.40;99.90;;;;;;4939696;29;20456;-75
2023/04/20 10:25:19;;;;;;;1.53;0.80;;;11.30;99.90;;;;;;4939396;29;20484;-75
2023/04/20 10:27:55;;;;;;;0.60;0.10;;;11.30;99.90;;;;;;4938914;29;20544;-75
2023/04/20 10:30:24;;;;;;;1.67;0.50;;;11.40;99.90;;;;;;4939103;29;20488;-77
2023/04/20 10:33:05;;;;;;;0.70;0.40;;;11.40;99.90;;;;;;4939279;29;20537;-74
2023/04/20 10:35:44;;;;;;;1.13;0.87;;;11.50;99.90;;;;;;4930244;29;20465;-77
2023/04/20 10:38:13;;;;;;;0.60;0.30;;;11.50;99.90;;;;;;4938927;29;20448;-74
2023/04/20 10:40:41;;;;;;;0.93;0.93;;;11.40;99.90;;;;;;4939450;29;20464;-77
2023/04/20 10:43:19;;;;;;;0.60;0.10;;;11.40;99.90;;;;;;4939437;29;20456;-75
2023/04/20 10:45:48;;;;;;;0.60;0.20;;;11.40;99.90;;;;;;4935708;29;20478;-75
2023/04/20 10:48:17;;;;;;;1.80;1.70;;;11.40;99.90;;;;;;4921885;29;20515;-76
2023/04/20 10:50:45;;;;;;;1.70;1.60;;;11.40;99.90;;;;;;4920060;29;20547;-75
2023/04/20 10:53:21;;;;;;;1.00;0.43;;;11.30;99.90;;;;;;4919507;29;20446;-76
2023/04/20 10:55:58;;;;;;;0.90;0.80;;;11.30;99.90;;;;;;4928859;29;20975;-75
2023/04/20 10:58:26;;;;;;;0.60;0.10;;;11.30;99.90;;;;;;4938929;29;20445;-75
2023/04/20 11:00:58;;;;;;;2.83;2.63;;;11.40;99.90;;;;;;4936005;29;20460;-77
2023/04/20 11:03:29;;;;;;;0.80;0.47;;;;;;;;;;4937283;29;20447;-75
2023/04/20 11:06:00;;;;;;;0.60;0.10;;;11.70;99.90;;;;;;4928578;29;20474;-74
2023/04/20 11:08:38;;;;;;;0.60;0.33;;;11.80;99.90;;;;;;4938775;29;20846;-74
2023/04/20 11:11:17;;;;;;;0.60;0.10;;;11.80;99.90;;;;;;4938792;29;20563;-74
2023/04/20 11:13:46;;;;;;;0.60;0.20;;;11.80;99.90;;;;;;4938478;29;20449;-75
2023/04/20 11:16:15;;;;;;;0.60;0.10;;;11.70;99.90;;;;;;4938637;29;20483;-74
2023/04/20 11:18:55;;;;;;;0.60;0.13;;;11.70;99.90;;;;;;4938215;29;21012;-75
2023/04/20 11:21:23;;;;;;;0.60;0.10;;;11.60;99.90;;;;;;4938311;29;20548;-74
2023/04/20 11:23:50;;;;;;;0.60;0.10;;;11.60;99.90;;;;;;4937962;29;20453;-73
2023/04/20 11:26:18;;;;;;;0.60;0.30;;;11.60;99.90;;;;;;4932872;29;20486;-75
2023/04/20 11:28:53;;;;;;;0.60;0.20;;;11.60;99.90;;;;;;4929729;29;20804;-75
2023/04/20 11:31:23;;;;;;;1.20;0.73;;;11.70;99.90;;;;;;4918146;29;20457;-74
2023/04/20 11:33:52;;;;;;;0.60;0.20;;;11.60;99.90;;;;;;4930817;29;20437;-71
2023/04/20 11:36:21;;;;;;;0.60;0.10;;;11.50;99.90;;;;;;4923456;29;20521;-73
2023/04/20 11:38:50;;;;;;;0.60;0.20;;;11.50;99.90;;;;;;4937796;29;20536;-74
2023/04/20 11:41:18;;;;;;;0.60;0.20;;;11.50;99.90;;;;;;4936167;29;20472;-73
2023/04/20 11:43:46;;;;;;;0.80;0.53;;;11.60;99.90;;;;;;4930728;29;20446;-75
2023/04/20 11:46:15;;;;;;;0.67;0.27;;;11.70;99.90;;;;;;4937994;29;20471;-75
2023/04/20 11:48:44;;;;;;;0.80;0.50;;;11.60;99.90;;;;;;4937378;29;20448;-74
2023/04/20 11:51:14;;;;;;;1.23;1.13;;;11.60;99.90;;;;;;4929210;29;20540;-74
2023/04/20 11:53:42;;;;;;;0.60;0.30;;;11.50;99.90;;;;;;4918730;29;20445;-75
2023/04/20 11:56:10;;;;;;;0.80;0.33;;;11.50;99.90;;;;;;4933945;29;21040;-75
2023/04/20 11:58:37;;;;;;;0.60;0.20;;;11.50;99.90;;;;;;4930018;29;20449;-75
2023/04/20 12:01:05;;;;;;;0.60;0.20;;;11.70;99.90;;;;;;4939328;29;20455;-74
2023/04/20 12:03:33;;;;;;;2.03;1.90;;;11.90;99.90;;;;;;4939459;29;20480;-76
2023/04/20 12:06:02;;;;;;;0.60;0.30;;;;;;;;;;4941069;29;20497;-74
2023/04/20 12:08:31;;;;;;;4.50;1.57;;;12.00;99.90;;;;;;4939867;29;20445;-75
2023/04/20 12:10:59;;;;;;;0.70;0.40;;;12.00;99.90;;;;;;4941183;29;20486;-74
2023/04/20 12:13:27;;;;;;;0.60;0.10;;;12.00;99.90;;;;;;4941058;29;20451;-74
2023/04/20 12:15:55;;;;;;;0.60;0.20;;;12.10;99.90;;;;;;4940558;29;20491;-77
2023/04/20 12:18:23;;;;;;;1.23;1.13;;;12.10;99.90;;;;;;4936732;29;20484;-76
2023/04/20 12:20:51;;;;;;;0.60;0.20;;;12.10;99.90;;;;;;4937463;29;20449;-75
2023/04/20 12:23:19;;;;;;;1.37;0.77;;;12.10;99.90;;;;;;4937404;29;20528;-75
2023/04/20 12:25:49;;;;;;;0.70;0.40;;;;;;;;;;4935640;29;20571;-75
2023/04/20 12:28:17;;;;;;;3.23;0.87;;;12.40;99.90;;;;;;4935621;29;20466;-76
2023/04/20 12:30:45;;;;;;;0.60;0.20;;;12.50;99.90;;;;;;4918671;29;20494;-74
2023/04/20 12:33:13;;;;;;;2.00;1.57;;;;;;;;;;4918880;29;20517;-76
2023/04/20 12:35:41;;;;;;;0.60;0.10;;;12.50;99.90;;;;;;4926477;29;20483;-75
2023/04/20 12:38:09;;;;;;;0.60;0.20;;;12.60;99.90;;;;;;4928198;29;20460;-75
2023/04/20 12:40:52;;;;;;;;;;;;;;;;;;;;;
2023/04/20 12:43:21;;;;;;;1.20;0.97;;;12.50;99.90;;;;;;4935657;29;20505;-75
2023/04/20 12:45:49;;;;;;;1.00;0.70;;;12.50;99.90;;;;;;4936005;29;20472;-75
2023/04/20 12:48:18;;;;;;;0.70;0.50;;;;;;;;;;4934414;29;20470;-75
2023/04/20 12:50:46;;;;;;;0.97;0.70;;;12.50;99.90;;;;;;4936177;29;20490;-76
2023/04/20 12:53:13;;;;;;;0.60;0.10;;;12.60;99.90;;;;;;4937401;29;20451;-75
2023/04/20 12:55:41;;;;;;;3.00;0.97;;;12.50;99.90;;;;;;4937100;29;20827;-73
2023/04/20 12:58:10;;;;;;;0.60;0.10;;;12.30;99.90;;;;;;4936523;29;20477;-74
2023/04/20 13:00:40;;;;;;;0.60;0.10;;;12.60;99.90;;;;;;4936716;29;20452;-75
2023/04/20 13:03:08;;;;;;;0.60;0.10;;;12.50;99.90;;;;;;4936554;29;21007;-77
2023/04/20 13:05:37;;;;;;;0.60;0.17;;;12.60;99.90;;;;;;4938015;29;20469;-75
2023/04/20 13:08:05;;;;;;;1.23;0.80;;;12.60;99.90;;;;;;4938595;29;20463;-75
2023/04/20 13:10:33;;;;;;;0.60;0.20;;;12.50;99.90;;;;;;4938678;29;20521;-77
2023/04/20 13:13:01;;;;;;;1.40;0.97;;;12.50;99.90;;;;;;4937771;29;20450;-73
2023/04/20 13:15:30;;;;;;;0.60;0.10;;;12.50;99.90;;;;;;4935937;29;20499;-75
2023/04/20 13:18:08;;;;;;;0.60;0.10;;;;;;;;;;4938439;29;20484;-75
2023/04/20 13:20:36;;;;;;;0.60;0.30;;;12.50;90.50;;;;;;4937676;29;20481;-77
2023/04/20 13:23:05;;;;;;;0.60;0.10;;;12.50;84.00;;;;;;4943256;29;20454;-76
2023/04/20 13:25:33;;;;;;;0.60;0.20;;;12.50;85.00;;;;;;4941847;29;20549;-75
2023/04/20 13:28:03;;;;;;;0.60;0.20;;;12.50;84.40;;;;;;4944423;29;20453;-77
2023/04/20 13:30:32;;;;;;;0.60;0.10;;;12.60;84.60;;;;;;4942336;29;20942;-76
2023/04/20 13:33:00;;;;;;;0.80;0.50;;;;;;;;;;4938391;29;20448;-75
2023/04/20 13:35:30;;;;;;;0.60;0.10;;;12.50;89.80;;;;;;4938475;29;20967;-77
2023/04/20 13:37:58;;;;;;;0.60;0.20;;;;;;;;;;4937961;29;20502;-76
2023/04/20 13:40:33;;;;;;;0.60;0.30;;;;;;;;;;4938014;29;20457;-77
2023/04/20 13:43:01;;;;;;;0.60;0.20;;;12.30;83.40;;;;;;4938384;29;20511;-78
2023/04/20 13:45:29;;;;;;;0.60;0.20;;;12.30;83.60;;;;;;4937166;29;20520;-76
2023/04/20 13:47:57;;;;;;;0.60;0.30;;;12.40;84.30;;;;;;4936713;29;20470;-77
2023/04/20 13:50:25;;;;;;;0.60;0.10;;;12.40;85.80;;;;;;4937604;29;20490;-76
2023/04/20 13:52:54;;;;;;;0.60;0.20;;;12.40;87.00;;;;;;4938914;29;20450;-78
2023/04/20 13:55:23;;;;;;;0.60;0.20;;;12.40;92.60;;;;;;4936545;29;20501;-76
2023/04/20 13:57:53;;;;;;;0.60;0.20;;;12.30;97.70;;;;;;4937891;29;20568;-76
2023/04/20 14:00:22;;;;;;;0.70;0.63;;;12.20;99.90;;;;;;4934877;29;21032;-76
2023/04/20 14:02:50;;;;;;;0.60;0.10;;;12.10;99.90;;;;;;4936802;29;20454;-77
2023/04/20 14:05:18;;;;;;;1.07;0.93;;;12.10;99.90;;;;;;4935529;29;20566;-74
2023/04/20 14:07:46;;;;;;;0.60;0.10;;;12.20;99.90;;;;;;4936773;29;20451;-75
2023/04/20 14:10:15;;;;;;;0.60;0.23;;;12.10;99.40;;;;;;4936140;29;20448;-74
2023/04/20 14:12:43;;;;;;;1.13;0.53;;;12.10;99.90;;;;;;4939969;29;20512;-80
2023/04/20 14:15:12;;;;;;;0.70;0.20;;;12.00;99.90;;;;;;4945923;29;20480;-78
2023/04/20 14:17:40;;;;;;;0.93;0.93;;;12.00;99.90;;;;;;4940459;29;20958;-77
2023/04/20 14:20:09;;;;;;;0.60;0.20;;;12.00;99.90;;;;;;4940799;29;20448;-77
2023/04/20 14:22:37;;;;;;;0.60;0.23;;;12.00;99.90;;;;;;4941240;29;20936;-76
2023/04/20 14:25:05;;;;;;;0.60;0.20;;;;;;;;;;4939930;29;20549;-77
2023/04/20 14:27:35;;;;;;;0.60;0.20;;;12.00;99.90;;;;;;4933526;29;20525;-77
2023/04/20 14:30:03;;;;;;;0.87;0.63;;;12.10;99.90;;;;;;4942877;29;20449;-76
2023/04/20 14:32:35;;;;;;;0.60;0.20;;;12.00;99.40;;;;;;4941171;29;20488;-78
2023/04/20 14:35:10;;;;;;;0.60;0.10;;;12.10;98.90;;;;;;4931869;29;20480;-76
2023/04/20 14:37:38;;;;;;;0.60;0.20;;;12.10;98.00;;;;;;4916842;29;20872;-75
2023/04/20 14:40:07;;;;;;;1.10;0.73;;;12.20;97.40;;;;;;4918048;29;20515;-76
2023/04/20 14:42:36;;;;;;;0.60;0.10;;;12.20;97.30;;;;;;4917900;29;20514;-77
2023/04/20 14:45:05;;;;;;;0.60;0.20;;;12.30;97.40;;;;;;4917994;29;20482;-74
2023/04/20 14:47:33;;;;;;;0.70;0.20;;;12.20;97.70;;;;;;4930496;29;20509;-72
2023/04/20 14:50:00;;;;;;;0.60;0.10;;;12.20;97.50;;;;;;4936950;29;20534;-72
2023/04/20 14:52:29;;;;;;;0.60;0.10;;;12.20;99.00;;;;;;4939084;29;20518;-72
2023/04/20 14:54:57;;;;;;;1.00;0.60;;;;;;;;;;4934662;29;20482;-72
2023/04/20 14:57:25;;;;;;;1.20;0.97;;;12.10;95.80;;;;;;4933689;29;20465;-72
2023/04/20 14:59:54;;;;;;;0.93;0.60;;;12.10;97.50;;;;;;4938749;29;20454;-73
2023/04/20 15:02:22;;;;;;;0.60;0.23;;;12.10;99.90;;;;;;4939373;29;20437;-73
2023/04/20 15:04:50;;;;;;;0.70;0.23;;;11.90;99.90;;;;;;4934095;29;20576;-72
2023/04/20 15:07:19;;;;;;;0.70;0.30;;;11.90;99.90;;;;;;4937961;29;20464;-71
2023/04/20 15:09:47;;;;;;;0.70;0.40;;;11.70;99.90;;;;;;4935208;29;20994;-71
2023/04/20 15:12:14;;;;;;;0.60;0.43;;;11.70;99.90;;;;;;4938946;29;20497;-73
2023/04/20 15:14:42;;;;;;;1.17;1.07;;;11.60;99.90;;;;;;4927839;29;20506;-72
2023/04/20 15:17:12;;;;;;;1.33;1.23;;;11.50;99.90;;;;;;4932471;29;20471;-73
2023/04/20 15:19:44;;;;;;;0.60;0.23;;;11.40;99.90;;;;;;4932494;29;20535;-73
2023/04/20 15:22:13;;;;;;;1.03;0.93;;;;;;;;;;4941556;29;20460;-77
2023/04/20 15:24:41;;;;;;;1.13;0.77;;;;;;;;;;4938004;29;20895;-77
2023/04/20 15:27:10;;;;;;;0.93;0.40;;;;;;;;;;4947962;29;20459;-71
2023/04/20 15:29:37;;;;;;;0.70;0.47;;;11.20;99.90;;;;;;4940012;29;20471;-71
2023/04/20 15:32:06;;;;;;;3.67;1.10;;;;;;;;;;4945945;29;20488;-77
2023/04/20 15:34:37;;;;;;;0.70;0.50;;;;;;;;;;4944371;29;20541;-77
2023/04/20 15:37:05;;;;;;;0.60;0.30;;;;;;;;;;4940251;29;20571;-72
2023/04/20 15:39:33;;;;;;;0.60;0.20;;;11.20;99.90;;;;;;4936564;29;20552;-75
2023/04/20 15:42:02;;;;;;;0.60;0.10;;;;;;;;;;4929316;29;20850;-78
2023/04/20 15:44:30;;;;;;;3.47;2.90;;;11.30;99.90;;;;;;4941508;29;21042;-79
2023/04/20 15:46:58;;;;;;;3.40;1.33;;;;;;;;;;4937446;29;20823;-76
2023/04/20 15:49:27;;;;;;;0.60;0.10;;;;;;;;;;4940453;29;20460;-75
2023/04/20 15:51:56;;;;;;;0.60;0.20;;;;;;;;;;4935921;29;20574;-76
2023/04/20 15:54:24;;;;;;;0.70;0.40;;;;;;;;;;4938734;29;20810;-70
2023/04/20 15:56:52;;;;;;;0.60;0.10;;;11.30;99.90;;;;;;4938179;29;20471;-75
2023/04/20 15:59:20;;;;;;;0.60;0.10;;;11.30;99.90;;;;;;4940117;29;20445;-76
2023/04/20 16:01:48;;;;;;;2.63;0.70;;;11.20;99.90;;;;;;4939847;29;20460;-75
2023/04/20 16:04:16;;;;;;;4.00;0.83;;;11.30;99.90;;;;;;4937981;29;20466;-72
2023/04/20 16:06:45;;;;;;;0.70;0.30;;;;;;;;;;4936468;29;20459;-76
2023/04/20 16:09:15;;;;;;;0.60;0.10;;;11.30;99.90;;;;;;4940128;29;20457;-73
2023/04/20 16:11:43;;;;;;;0.60;0.10;;;;;;;;;;4943041;29;20454;-76
2023/04/20 16:14:11;;;;;;;1.00;0.73;;;;;;;;;;4934923;29;20532;-77
2023/04/20 16:16:39;;;;;;;0.60;0.10;;;;;;;;;;4937903;29;20472;-76
2023/04/20 16:19:08;;;;;;;0.60;0.20;;;;;;;;;;4944413;29;20463;-76
2023/04/20 16:21:36;;;;;;;0.60;0.10;;;;;;;;;;4944663;29;20497;-78
2023/04/20 16:24:04;;;;;;;0.60;0.20;;;;;;;;;;4943326;29;20465;-78
2023/04/20 16:26:36;;;;;;;1.57;0.80;;;;;;;;;;4943633;29;20508;-75
2023/04/20 16:29:05;;;;;;;0.60;0.23;;;;;;;;;;4938729;29;20448;-76
2023/04/20 16:31:35;;;;;;;0.60;0.20;;;;;;;;;;4943087;29;20429;-76
2023/04/20 16:34:03;;;;;;;0.60;0.10;;;;;;;;;;4940679;29;20531;-76
2023/04/20 16:36:31;;;;;;;0.60;0.60;;;11.00;99.90;;;;;;4945818;28;21001;-75
2023/04/20 16:39:04;;;;;;;0.60;0.30;;;;;;;;;;4944579;29;20468;-75
2023/04/20 16:41:32;;;;;;;0.60;0.23;;;;;;;;;;4944289;29;20862;-76
2023/04/20 16:44:02;;;;;;;0.70;0.20;;;;;;;;;;4944076;29;20444;-77
2023/04/20 16:46:30;;;;;;;0.60;0.20;;;10.80;99.90;;;;;;4944453;29;20500;-78
2023/04/20 16:48:59;;;;;;;1.90;1.80;;;;;;;;;;4945335;29;20493;-80
2023/04/20 16:51:28;;;;;;;0.60;0.10;;;;;;;;;;4938532;29;20560;-75
2023/04/20 16:53:56;;;;;;;0.60;0.30;;;;;;;;;;4941093;29;20852;-77
2023/04/20 16:56:24;;;;;;;0.60;0.10;;;10.70;99.90;;;;;;4938207;29;20512;-76
2023/04/20 16:58:52;;;;;;;0.60;0.10;;;;;;;;;;4923677;29;20469;-76
2023/04/20 17:01:21;;;;;;;0.93;0.93;;;;;;;;;;4939512;29;20471;-73
2023/04/20 17:03:50;;;;;;;1.90;1.27;;;;;;;;;;4938012;29;20460;-74
2023/04/20 17:06:18;;;;;;;5.80;0.70;;;;;;;;;;4933652;29;20549;-75
2023/04/20 17:08:48;;;;;;;1.03;0.93;;;10.50;99.90;;;;;;4935199;29;20471;-74
2023/04/20 17:11:18;;;;;;;0.60;0.27;;;;;;;;;;4940497;29;20466;-76
2023/04/20 17:13:46;;;;;;;0.60;0.20;;;;;;;;;;4942151;29;20990;-78
2023/04/20 17:16:14;;;;;;;0.83;0.50;;;;;;;;;;4933801;29;20497;-76
2023/04/20 17:18:44;;;;;;;0.60;0.20;;;10.20;99.90;;;;;;4941185;29;20625;-74